Time;durP1;ratioP1;P1;durP2;ratioP2;P2;SDS_P1;SDS_P2;PMS_P1;PMS_P2;Temp;Humidity;BMP_temperature;BMP_pressure;BME280_temperature;BME280_humidity;BME280_pressure;Samples;Min_cycle;Max_cycle;Signal;HPM_P1;HPM_P2
2023/07/22 00:01:31;;;;;;;7.20;4.75;;;;;;;23.32;45.02;101347.56;4997667;28;20034;-63
2023/07/22 00:03:57;;;;;;;7.57;5.10;;;;;;;23.34;44.97;101347.41;4997479;28;20025;-62
2023/07/22 00:06:22;;;;;;;7.30;4.88;;;;;;;23.34;44.79;101347.41;4997403;28;20459;-63
2023/07/22 00:08:47;;;;;;;7.85;5.00;;;;;;;23.32;44.83;101342.25;4996884;28;20156;-63
2023/07/22 00:11:13;;;;;;;7.03;4.60;;;;;;;23.33;45.21;101356.38;4996649;28;20030;-64
2023/07/22 00:13:38;;;;;;;6.97;5.20;;;;;;;23.33;45.06;101346.56;4997033;28;20044;-64
2023/07/22 00:16:07;;;;;;;7.55;5.40;;;;;;;23.33;44.79;101346.56;4997568;28;20037;-64
2023/07/22 00:18:33;;;;;;;8.00;5.40;;;;;;;23.30;45.00;101344.19;4997232;28;20034;-64
2023/07/22 00:20:59;;;;;;;7.10;5.20;;;;;;;23.31;44.92;101345.06;4996977;28;20372;-63
2023/07/22 00:23:25;;;;;;;7.30;5.13;;;;;;;23.31;45.01;101335.25;4996603;28;20049;-63
2023/07/22 00:25:50;;;;;;;8.07;5.28;;;;;;;23.31;45.05;101339.75;4996676;28;20050;-63
2023/07/22 00:28:16;;;;;;;6.70;4.93;;;;;;;23.29;45.00;101339.03;4997086;28;20080;-63
2023/07/22 00:30:42;;;;;;;6.70;4.82;;;;;;;23.30;45.04;101338.88;4997294;28;20390;-64
2023/07/22 00:33:08;;;;;;;7.00;4.97;;;;;;;23.30;44.87;101340.72;4997163;28;20031;-62
2023/07/22 00:35:33;;;;;;;6.90;5.25;;;;;;;23.30;44.99;101346.03;4996824;28;20413;-63
2023/07/22 00:38:00;;;;;;;8.65;5.20;;;;;;;23.28;45.13;101348.00;4987102;28;20018;-63
2023/07/22 00:40:25;;;;;;;6.93;5.03;;;;;;;23.27;44.92;101343.66;4996900;28;20042;-62
2023/07/22 00:42:51;;;;;;;6.80;5.25;;;;;;;23.27;45.12;101338.34;4996800;28;20166;-62
2023/07/22 00:45:16;;;;;;;6.82;5.03;;;;;;;23.29;44.78;101347.84;4996836;28;20058;-62
2023/07/22 00:47:42;;;;;;;6.97;4.88;;;;;;;23.28;44.66;101329.41;4996346;28;20038;-63
2023/07/22 00:50:08;;;;;;;6.80;4.68;;;;;;;23.26;45.09;101336.69;4996470;28;20470;-62
2023/07/22 00:52:34;;;;;;;7.13;5.40;;;;;;;23.27;44.63;101339.16;4996556;28;20041;-62
2023/07/22 00:54:59;;;;;;;7.57;5.05;;;;;;;23.27;44.92;101333.03;4996403;28;20030;-63
2023/07/22 00:57:25;;;;;;;7.68;4.88;;;;;;;23.27;45.07;101327.69;4996914;28;20101;-63
2023/07/22 00:59:51;;;;;;;8.48;5.57;;;;;;;23.27;44.60;101335.69;4997317;28;20034;-64
2023/07/22 01:02:17;;;;;;;7.88;5.18;;;;;;;23.26;44.92;101334.03;4996663;28;20034;-64
2023/07/22 01:04:43;;;;;;;7.40;4.70;;;;;;;23.25;45.10;101330.50;4996697;28;20895;-62
2023/07/22 01:07:09;;;;;;;7.00;5.25;;;;;;;23.24;44.93;101330.66;4996433;28;20463;-62
2023/07/22 01:09:39;;;;;;;6.95;5.10;;;;;;;23.25;44.54;101329.69;4996937;28;20054;-63
2023/07/22 01:12:06;;;;;;;7.88;5.20;;;;;;;23.25;44.58;101324.38;4996483;28;20030;-64
2023/07/22 01:14:39;;;;;;;6.88;4.85;;;;;;;23.21;44.54;101326.50;4996879;28;20026;-64
2023/07/22 01:17:07;;;;;;;8.98;5.30;;;;;;;23.23;44.66;101323.69;4996212;28;20058;-64
2023/07/22 01:19:33;;;;;;;8.35;4.53;;;;;;;23.22;44.66;101325.47;4996292;28;20041;-64
2023/07/22 01:22:04;;;;;;;6.78;5.05;;;;;;;23.22;44.86;101316.69;4996227;28;20029;-62
2023/07/22 01:24:30;;;;;;;7.30;5.28;;;;;;;23.23;44.64;101318.38;4997052;28;20478;-62
2023/07/22 01:26:56;;;;;;;6.82;5.15;;;;;;;23.22;45.01;101316.69;4999763;28;20030;-64
2023/07/22 01:29:22;;;;;;;6.70;5.05;;;;;;;23.22;44.42;101314.03;5000526;28;20069;-64
2023/07/22 01:31:50;;;;;;;7.40;4.93;;;;;;;23.21;44.34;101313.19;5000105;28;20181;-64
2023/07/22 01:34:15;;;;;;;7.05;5.00;;;;;;;23.20;44.98;101311.50;4999695;28;20209;-62
2023/07/22 01:36:40;;;;;;;7.30;5.13;;;;;;;23.22;44.63;101314.03;5000845;28;20121;-62
2023/07/22 01:39:06;;;;;;;7.10;4.68;;;;;;;23.22;44.87;101314.03;5000143;28;20472;-62
2023/07/22 01:41:31;;;;;;;6.97;5.47;;;;;;;23.21;44.93;101310.53;5000278;28;20037;-62
2023/07/22 01:43:57;;;;;;;6.70;4.82;;;;;;;23.20;44.79;101311.50;5031667;28;20434;-65
2023/07/22 01:46:22;;;;;;;7.90;4.90;;;;;;;23.19;44.87;101304.50;4999641;28;20370;-62
2023/07/22 01:48:48;;;;;;;7.10;5.40;;;;;;;23.20;44.52;101306.19;4999976;28;20022;-62
2023/07/22 01:51:13;;;;;;;9.25;5.68;;;;;;;23.19;44.90;101301.84;4999889;28;20026;-62
2023/07/22 01:53:38;;;;;;;7.78;5.45;;;;;;;23.18;44.48;101302.84;4999882;28;20445;-64
2023/07/22 01:56:05;;;;;;;7.57;5.05;;;;;;;23.19;44.64;101293.88;4999834;28;20033;-63
2023/07/22 01:58:30;;;;;;;7.60;5.60;;;;;;;23.19;44.62;101293.88;4999554;28;20073;-63
2023/07/22 02:00:55;;;;;;;7.90;5.50;;;;;;;23.19;44.63;101291.22;4999382;28;20069;-65
2023/07/22 02:03:21;;;;;;;7.40;5.30;;;;;;;23.18;44.40;101295.69;4999204;28;20030;-62
2023/07/22 02:05:46;;;;;;;6.30;4.90;;;;;;;23.18;44.69;101293.03;4999577;28;20042;-62
2023/07/22 02:08:11;;;;;;;7.20;5.30;;;;;;;23.18;44.93;101302.84;4998945;28;20034;-64
2023/07/22 02:10:37;;;;;;;8.15;5.30;;;;;;;23.15;44.50;101297.81;4999934;28;20053;-66
2023/07/22 02:13:04;;;;;;;6.97;5.40;;;;;;;23.16;44.59;101299.47;4999459;28;20072;-63
2023/07/22 02:15:30;;;;;;;7.80;5.60;;;;;;;23.16;44.82;101296.81;4999255;28;20018;-63
2023/07/22 02:17:56;;;;;;;6.95;5.00;;;;;;;23.15;44.88;101288.03;4999487;28;20026;-61
2023/07/22 02:20:22;;;;;;;6.95;5.35;;;;;;;23.16;44.81;101295.03;4999044;28;20040;-64
2023/07/22 02:22:47;;;;;;;6.97;5.00;;;;;;;23.15;44.33;101300.50;4999488;28;20505;-62
2023/07/22 02:25:14;;;;;;;7.55;5.63;;;;;;;23.15;44.70;101287.19;4998887;28;20484;-64
2023/07/22 02:27:40;;;;;;;7.53;5.75;;;;;;;23.15;44.39;101285.34;4998961;28;20034;-62
2023/07/22 02:30:10;;;;;;;7.53;5.65;;;;;;;23.15;44.59;101287.19;4998947;28;20078;-62
2023/07/22 02:32:39;;;;;;;7.25;5.18;;;;;;;23.14;44.40;101286.34;4998407;28;20531;-62
2023/07/22 02:35:06;;;;;;;7.32;5.50;;;;;;;23.14;44.57;101282.84;4998272;28;20049;-62
2023/07/22 02:37:31;;;;;;;6.00;4.72;;;;;;;23.14;44.80;101289.00;4998660;28;20073;-65
2023/07/22 02:39:56;;;;;;;8.45;5.50;;;;;;;23.13;44.80;101283.81;4999030;28;20026;-63
2023/07/22 02:42:22;;;;;;;7.53;5.45;;;;;;;23.14;44.66;101286.34;4998779;28;20034;-64
2023/07/22 02:44:47;;;;;;;8.38;5.40;;;;;;;23.13;44.84;101286.47;4998726;28;20037;-62
2023/07/22 02:47:14;;;;;;;7.20;5.15;;;;;;;23.12;44.65;101288.31;4998510;28;21196;-62
2023/07/22 02:49:39;;;;;;;7.30;5.07;;;;;;;23.13;44.45;101281.16;4998728;28;20037;-65
2023/07/22 02:52:06;;;;;;;7.13;5.25;;;;;;;23.13;44.80;101281.16;4998523;28;20030;-63
2023/07/22 02:54:32;;;;;;;7.10;5.18;;;;;;;23.09;44.37;101277.16;4998853;28;20025;-62
2023/07/22 02:56:57;;;;;;;7.72;5.30;;;;;;;23.13;44.71;101281.16;4998415;28;20462;-62
2023/07/22 02:59:24;;;;;;;6.57;5.18;;;;;;;23.11;44.25;101280.47;4998474;28;20036;-64
2023/07/22 03:01:49;;;;;;;8.27;5.60;;;;;;;23.12;44.61;101282.16;4998631;28;20398;-63
2023/07/22 03:04:15;;;;;;;7.43;5.07;;;;;;;23.11;44.80;101281.31;4998750;28;20030;-62
2023/07/22 03:06:42;;;;;;;7.35;5.00;;;;;;;23.09;44.69;101279.81;4998253;28;20121;-63
2023/07/22 03:09:07;;;;;;;7.68;5.07;;;;;;;23.10;44.76;101284.16;4998584;28;21174;-62
2023/07/22 03:11:34;;;;;;;7.32;5.60;;;;;;;23.10;44.72;101284.97;4998185;28;20026;-60
2023/07/22 03:13:59;;;;;;;7.70;5.47;;;;;;;23.10;44.49;101289.47;4998468;28;20022;-62
2023/07/22 03:16:25;;;;;;;6.93;5.43;;;;;;;23.10;44.59;101289.47;4997749;28;20038;-60
2023/07/22 03:18:50;;;;;;;6.82;5.45;;;;;;;23.09;44.74;101293.91;4998207;28;20025;-61
2023/07/22 03:21:15;;;;;;;7.95;5.25;;;;;;;23.09;44.46;101293.91;4998091;28;20036;-62
2023/07/22 03:23:41;;;;;;;7.90;5.40;;;;;;;23.09;44.49;101296.56;4998230;28;20026;-63
2023/07/22 03:26:06;;;;;;;6.97;4.88;;;;;;;23.07;44.60;101295.03;4988453;28;20107;-61
2023/07/22 03:28:32;;;;;;;7.30;5.20;;;;;;;23.07;44.70;101300.34;4998241;28;20045;-63
2023/07/22 03:30:57;;;;;;;7.50;5.22;;;;;;;23.07;44.58;101298.53;4998264;28;20037;-63
2023/07/22 03:33:22;;;;;;;7.22;5.53;;;;;;;23.08;44.42;101302.91;4998148;28;21403;-61
2023/07/22 03:35:47;;;;;;;8.10;5.80;;;;;;;23.07;44.61;101303.84;5029019;28;20049;-63
2023/07/22 03:38:13;;;;;;;7.88;5.20;;;;;;;23.05;44.69;101299.63;4998238;28;20038;-63
2023/07/22 03:40:39;;;;;;;8.00;5.53;;;;;;;23.07;44.44;101308.31;4998001;28;20030;-62
2023/07/22 03:43:04;;;;;;;6.47;5.13;;;;;;;23.06;44.61;101315.44;4997402;28;20108;-64
2023/07/22 03:45:29;;;;;;;7.70;5.28;;;;;;;23.06;44.57;101304.00;4997356;28;20038;-62
2023/07/22 03:47:57;;;;;;;6.82;4.95;;;;;;;23.04;44.62;101303.31;4996913;28;20056;-62
2023/07/22 03:50:23;;;;;;;8.43;5.03;;;;;;;23.04;44.35;101301.47;4997938;28;20062;-61
2023/07/22 03:52:48;;;;;;;7.57;5.40;;;;;;;23.04;44.29;101303.31;4997684;28;20061;-61
2023/07/22 03:55:13;;;;;;;6.80;4.85;;;;;;;23.04;44.50;101304.13;4997570;28;20399;-62
2023/07/22 03:57:39;;;;;;;6.65;4.78;;;;;;;23.04;44.44;101311.28;4997282;28;20075;-62
2023/07/22 04:00:09;;;;;;;7.78;5.50;;;;;;;23.04;44.43;101300.66;4997264;28;20037;-64
2023/07/22 04:02:34;;;;;;;8.05;4.93;;;;;;;23.01;44.63;101299.94;4997407;28;20032;-62
2023/07/22 04:05:00;;;;;;;7.35;4.90;;;;;;;23.04;44.42;101300.66;4997644;28;20042;-62
2023/07/22 04:07:25;;;;;;;6.70;4.90;;;;;;;23.02;44.63;101298.13;4997310;28;20064;-63
2023/07/22 04:09:50;;;;;;;6.72;4.78;;;;;;;23.03;44.43;101301.63;4997316;28;20041;-65
2023/07/22 04:12:16;;;;;;;7.57;5.32;;;;;;;23.00;44.48;101297.41;4996985;28;20458;-62
2023/07/22 04:14:41;;;;;;;6.80;5.13;;;;;;;23.01;44.44;101302.59;4997660;28;20502;-63
2023/07/22 04:17:07;;;;;;;7.75;5.15;;;;;;;23.00;44.66;101300.06;4996638;28;20430;-61
2023/07/22 04:19:32;;;;;;;6.88;4.63;;;;;;;23.00;44.60;101302.72;4997488;28;20030;-61
2023/07/22 04:21:59;;;;;;;7.28;5.32;;;;;;;22.99;44.33;101298.41;4997278;28;20030;-60
2023/07/22 04:24:25;;;;;;;7.53;5.18;;;;;;;22.99;44.27;101304.56;4997141;28;20814;-61
2023/07/22 04:26:50;;;;;;;8.02;4.95;;;;;;;22.97;44.48;101303.88;4997194;28;20033;-61
2023/07/22 04:29:16;;;;;;;7.47;5.32;;;;;;;22.98;44.56;101297.56;4996613;28;20037;-62
2023/07/22 04:31:41;;;;;;;9.38;5.20;;;;;;;22.97;44.45;101303.88;4997060;28;20022;-60
2023/07/22 04:34:06;;;;;;;7.13;5.10;;;;;;;22.98;44.50;101308.19;4996915;28;20439;-62
2023/07/22 04:36:32;;;;;;;7.15;5.00;;;;;;;22.98;44.76;101312.69;4996865;28;20481;-62
2023/07/22 04:38:57;;;;;;;8.85;5.05;;;;;;;22.97;44.32;101314.50;5028323;28;20472;-63
2023/07/22 04:41:23;;;;;;;7.50;5.15;;;;;;;22.98;44.40;101315.34;4997079;28;20132;-60
2023/07/22 04:43:50;;;;;;;7.95;4.93;;;;;;;22.97;44.29;101308.34;4996609;28;20026;-63
2023/07/22 04:46:15;;;;;;;7.78;5.20;;;;;;;22.97;44.60;101311.00;4995434;28;20042;-61
2023/07/22 04:48:41;;;;;;;8.73;5.30;;;;;;;22.94;44.92;101304.16;4996243;28;20038;-61
2023/07/22 04:51:07;;;;;;;6.90;4.93;;;;;;;22.96;44.28;101309.34;4996936;28;20037;-62
2023/07/22 04:53:32;;;;;;;6.75;4.95;;;;;;;22.96;44.24;101312.81;4996661;28;20271;-61
2023/07/22 04:55:58;;;;;;;7.03;5.22;;;;;;;22.95;44.68;101310.31;4996297;28;20030;-61
2023/07/22 04:58:24;;;;;;;6.60;4.85;;;;;;;22.96;44.80;101314.66;4996876;28;20536;-61
2023/07/22 05:00:49;;;;;;;7.13;4.90;;;;;;;22.95;44.68;101315.63;5000773;28;20073;-62
2023/07/22 05:03:15;;;;;;;6.07;4.50;;;;;;;22.94;44.34;101317.47;4991272;28;20375;-62
2023/07/22 05:05:41;;;;;;;8.00;5.47;;;;;;;22.94;44.80;101322.78;5000352;28;20062;-61
2023/07/22 05:08:08;;;;;;;6.30;4.30;;;;;;;22.95;44.84;101323.59;5000135;28;20466;-65
2023/07/22 05:10:33;;;;;;;7.57;5.03;;;;;;;22.95;44.69;101327.09;5000481;28;20407;-62
2023/07/22 05:12:59;;;;;;;7.47;4.80;;;;;;;22.94;44.82;101319.25;5000207;28;20038;-61
2023/07/22 05:15:24;;;;;;;7.18;5.18;;;;;;;22.93;44.81;101318.44;5000954;28;20355;-64
2023/07/22 05:17:50;;;;;;;6.65;5.00;;;;;;;22.95;44.93;101331.56;4999392;28;20068;-62
2023/07/22 05:20:15;;;;;;;7.55;4.78;;;;;;;22.94;44.49;101327.22;5000201;28;20022;-63
2023/07/22 05:22:41;;;;;;;7.18;4.85;;;;;;;22.94;45.03;101324.56;4999420;28;20475;-61
2023/07/22 05:25:07;;;;;;;6.68;4.70;;;;;;;22.92;44.64;101318.56;5000234;28;20129;-62
2023/07/22 05:27:33;;;;;;;6.97;5.07;;;;;;;22.94;44.71;101319.25;4999733;28;20029;-62
2023/07/22 05:29:58;;;;;;;7.65;4.80;;;;;;;22.93;44.96;101323.75;4999756;28;20371;-62
2023/07/22 05:32:24;;;;;;;8.88;4.90;;;;;;;22.92;44.65;101322.09;5000251;28;20367;-63
2023/07/22 05:34:49;;;;;;;7.60;5.10;;;;;;;22.92;44.40;101319.44;4999798;28;20038;-61
2023/07/22 05:37:14;;;;;;;7.68;5.03;;;;;;;22.91;44.79;101316.91;4999432;28;20100;-63
2023/07/22 05:39:40;;;;;;;6.97;4.78;;;;;;;22.93;44.78;101310.47;4999684;28;20037;-64
2023/07/22 05:42:05;;;;;;;7.22;5.18;;;;;;;22.95;44.49;101315.63;4999312;28;20034;-62
2023/07/22 05:44:31;;;;;;;7.00;4.88;;;;;;;22.96;44.74;101320.81;5000035;28;20041;-61
2023/07/22 05:46:56;;;;;;;6.93;4.70;;;;;;;22.94;45.02;101319.25;4999587;28;20109;-61
2023/07/22 05:49:21;;;;;;;7.57;5.00;;;;;;;22.93;44.54;101328.22;4998330;28;20393;-61
2023/07/22 05:51:47;;;;;;;7.82;4.95;;;;;;;22.93;44.83;101315.78;4999477;28;20038;-60
2023/07/22 05:54:12;;;;;;;7.05;4.78;;;;;;;22.94;44.93;101317.47;4998677;28;20054;-62
2023/07/22 05:56:37;;;;;;;7.38;4.97;;;;;;;22.93;45.26;101310.47;4999559;28;20109;-61
2023/07/22 05:59:03;;;;;;;7.32;5.00;;;;;;;22.93;44.63;101313.13;4998938;28;20518;-63
2023/07/22 06:01:28;;;;;;;7.95;4.90;;;;;;;22.92;44.87;101307.94;4997767;28;20026;-61
2023/07/22 06:03:53;;;;;;;7.45;4.93;;;;;;;22.91;44.88;101315.09;4999234;28;20030;-63
2023/07/22 06:06:19;;;;;;;8.30;4.70;;;;;;;22.92;45.27;101307.94;4999058;28;20069;-63
2023/07/22 06:08:44;;;;;;;6.80;4.85;;;;;;;22.89;45.37;101302.91;4999103;28;20046;-62
2023/07/22 06:11:09;;;;;;;7.50;5.10;;;;;;;22.91;44.97;101306.28;4999431;28;20481;-61
2023/07/22 06:13:35;;;;;;;7.28;5.03;;;;;;;22.90;45.33;101301.94;4999232;28;20076;-61
2023/07/22 06:16:00;;;;;;;6.95;4.82;;;;;;;22.91;45.32;101312.44;4999065;28;20072;-64
2023/07/22 06:18:25;;;;;;;7.15;5.00;;;;;;;22.92;45.34;101305.28;4999088;28;20041;-63
2023/07/22 06:20:51;;;;;;;7.93;5.10;;;;;;;22.90;45.45;101297.47;4999188;28;20018;-63
2023/07/22 06:23:17;;;;;;;7.47;4.82;;;;;;;22.90;45.48;101301.94;4999071;28;20033;-63
2023/07/22 06:25:42;;;;;;;8.30;4.95;;;;;;;22.88;45.61;101304.75;4999148;28;20046;-64
2023/07/22 06:28:08;;;;;;;8.98;5.15;;;;;;;22.89;45.82;101301.13;4998603;28;20030;-61
2023/07/22 06:30:33;;;;;;;6.88;5.03;;;;;;;22.91;46.08;101298.31;4999224;28;20466;-62
2023/07/22 06:32:58;;;;;;;6.95;4.95;;;;;;;22.93;46.29;101309.63;4998549;28;20022;-63
2023/07/22 06:35:24;;;;;;;7.75;5.07;;;;;;;22.92;46.09;101307.94;4999326;28;20042;-62
2023/07/22 06:37:49;;;;;;;7.40;4.75;;;;;;;22.90;46.02;101302.78;4997177;28;20461;-63
2023/07/22 06:40:14;;;;;;;6.97;4.53;;;;;;;22.90;46.30;101297.47;4998544;28;20480;-63
2023/07/22 06:42:40;;;;;;;7.63;4.95;;;;;;;22.92;46.60;101300.81;4998165;28;20099;-62
2023/07/22 06:45:06;;;;;;;7.28;5.35;;;;;;;22.93;46.57;101299.00;4998336;28;20482;-63
2023/07/22 06:47:31;;;;;;;6.38;4.53;;;;;;;22.93;46.61;101297.16;4997853;28;20034;-64
2023/07/22 06:49:57;;;;;;;7.30;5.10;;;;;;;22.94;46.41;101293.53;4998526;28;20057;-63
2023/07/22 06:52:22;;;;;;;7.35;4.88;;;;;;;22.97;46.19;101292.38;4998785;28;20061;-63
2023/07/22 06:54:48;;;;;;;9.07;5.15;;;;;;;22.98;46.56;101296.75;4998795;28;20508;-63
2023/07/22 06:57:13;;;;;;;8.15;4.53;;;;;;;22.98;46.41;101291.41;4998162;28;20030;-63
2023/07/22 06:59:38;;;;;;;9.88;5.10;;;;;;;22.98;46.68;101294.91;4998532;28;20435;-63
2023/07/22 07:02:04;;;;;;;6.85;4.93;;;;;;;22.98;46.94;101292.25;4998155;28;20028;-61
2023/07/22 07:04:30;;;;;;;8.35;4.57;;;;;;;22.95;47.06;101289.06;4997416;28;20026;-61
2023/07/22 07:06:55;;;;;;;7.25;4.85;;;;;;;22.98;46.68;101286.09;4998532;28;20027;-60
2023/07/22 07:09:20;;;;;;;8.15;5.03;;;;;;;22.98;46.77;101278.97;4998172;28;20045;-61
2023/07/22 07:11:46;;;;;;;7.05;4.70;;;;;;;23.00;47.19;101292.09;4998317;28;20459;-62
2023/07/22 07:14:11;;;;;;;7.50;4.82;;;;;;;22.97;47.20;101285.28;4998084;28;20109;-60
2023/07/22 07:16:37;;;;;;;9.25;5.10;;;;;;;22.97;47.47;101281.75;4998241;28;20038;-62
2023/07/22 07:19:02;;;;;;;6.63;4.82;;;;;;;22.99;47.07;101285.13;4998097;28;20031;-64
2023/07/22 07:21:28;;;;;;;8.93;4.65;;;;;;;22.99;47.23;101280.66;4997271;28;20463;-65
2023/07/22 07:23:54;;;;;;;7.53;4.80;;;;;;;23.00;47.36;101284.13;4996898;28;20478;-62
2023/07/22 07:26:19;;;;;;;8.70;4.70;;;;;;;22.99;47.47;101283.31;4997655;28;20057;-62
2023/07/22 07:28:46;;;;;;;8.18;4.72;;;;;;;22.99;47.78;101278.00;4997395;28;20034;-63
2023/07/22 07:31:11;;;;;;;8.95;4.93;;;;;;;23.01;47.24;101276.00;4997531;28;20486;-61
2023/07/22 07:33:37;;;;;;;7.18;4.70;;;;;;;23.01;47.64;101280.50;4997702;28;20041;-69
2023/07/22 07:36:03;;;;;;;7.65;5.07;;;;;;;23.07;47.26;101281.75;4994591;28;20033;-66
2023/07/22 07:38:29;;;;;;;7.75;4.95;;;;;;;23.08;47.70;101281.63;4996630;28;20481;-68
2023/07/22 07:41:12;;;;;;;8.70;4.80;;;;;;;23.11;47.20;101280.47;4996148;28;20018;-65
2023/07/22 07:43:39;;;;;;;9.67;5.07;;;;;;;23.11;47.32;101280.47;4996297;28;20467;-65
2023/07/22 07:46:23;;;;;;;8.68;4.90;;;;;;;23.15;47.88;101279.22;4995819;28;20463;-67
2023/07/22 07:48:52;;;;;;;8.15;4.75;;;;;;;23.19;47.77;101277.91;4995502;28;20443;-67
2023/07/22 07:51:20;;;;;;;10.52;5.22;;;;;;;23.20;48.03;101281.44;4996916;28;20517;-67
2023/07/22 07:53:49;;;;;;;12.60;5.30;;;;;;;23.23;47.56;101278.47;4996917;28;20952;-67
2023/07/22 07:56:15;;;;;;;9.43;5.57;;;;;;;23.23;47.88;101283.81;4997056;28;20037;-68
2023/07/22 07:58:41;;;;;;;8.80;4.70;;;;;;;23.25;47.66;101287.13;4996283;28;20391;-66
2023/07/22 08:01:07;;;;;;;8.38;4.95;;;;;;;23.27;48.02;101291.31;4996639;28;20030;-65
2023/07/22 08:03:34;;;;;;;8.27;5.18;;;;;;;23.31;47.62;101289.22;4996904;28;20030;-66
2023/07/22 08:06:00;;;;;;;7.28;4.82;;;;;;;23.31;47.88;101294.53;4995442;28;20085;-64
2023/07/22 08:08:25;;;;;;;6.57;4.35;;;;;;;23.33;47.45;101287.22;4996323;28;20033;-65
2023/07/22 08:11:00;;;;;;;8.10;4.53;;;;;;;23.33;47.98;101296.03;4995584;28;20030;-66
2023/07/22 08:13:26;;;;;;;7.97;4.72;;;;;;;23.32;47.45;101290.88;4995669;28;20431;-64
2023/07/22 08:15:53;;;;;;;8.18;5.13;;;;;;;23.32;47.43;101283.75;4985585;28;20030;-63
2023/07/22 08:18:18;;;;;;;8.05;4.70;;;;;;;23.33;47.43;101280.06;4986369;28;20395;-67
2023/07/22 08:20:43;;;;;;;6.93;4.22;;;;;;;23.34;47.57;101280.94;4995469;28;20121;-66
2023/07/22 08:23:09;;;;;;;7.60;4.53;;;;;;;23.35;47.34;101283.44;4995988;28;20044;-68
2023/07/22 08:25:34;;;;;;;7.85;4.47;;;;;;;23.36;47.96;101290.41;4994212;28;20053;-63
2023/07/22 08:27:59;;;;;;;7.95;4.68;;;;;;;23.34;47.53;101289.75;4996826;28;20417;-64
2023/07/22 08:30:25;;;;;;;7.65;4.40;;;;;;;23.32;47.72;101291.72;4996877;28;20452;-64
2023/07/22 08:32:50;;;;;;;6.82;4.55;;;;;;;23.33;47.80;101301.34;4996520;28;20025;-66
2023/07/22 08:35:17;;;;;;;7.13;4.55;;;;;;;23.34;47.84;101295.06;4985658;28;20422;-65
2023/07/22 08:37:43;;;;;;;8.02;4.65;;;;;;;23.34;48.01;101288.91;4987529;28;20062;-64
2023/07/22 08:40:09;;;;;;;8.90;4.57;;;;;;;23.36;47.76;101293.09;4987509;28;20497;-64
2023/07/22 08:42:36;;;;;;;7.22;4.50;;;;;;;23.36;48.08;101287.75;4988025;28;20108;-65
2023/07/22 08:45:05;;;;;;;7.38;4.25;;;;;;;23.36;47.89;101285.09;4995205;28;20109;-66
2023/07/22 08:47:32;;;;;;;8.00;4.30;;;;;;;23.37;48.06;101288.63;4996263;28;20029;-65
2023/07/22 08:50:01;;;;;;;8.18;4.15;;;;;;;23.39;47.75;101286.63;4996605;28;20116;-67
2023/07/22 08:52:27;;;;;;;7.20;4.45;;;;;;;23.39;48.15;101291.97;4996629;28;20366;-66
2023/07/22 08:54:52;;;;;;;6.30;4.00;;;;;;;23.40;48.00;101295.44;4996740;28;20045;-62
2023/07/22 08:57:18;;;;;;;9.70;4.40;;;;;;;23.39;47.98;101291.13;4997023;28;20358;-62
2023/07/22 08:59:45;;;;;;;8.13;4.00;;;;;;;23.41;48.30;101292.63;4994145;28;20046;-66
2023/07/22 09:02:13;;;;;;;7.25;3.85;;;;;;;23.43;47.86;101296.00;4991922;28;20451;-64
2023/07/22 09:04:40;;;;;;;6.80;4.10;;;;;;;23.46;48.00;101294.84;4996834;28;20040;-65
2023/07/22 09:07:06;;;;;;;6.38;3.65;;;;;;;23.47;47.73;101293.88;4995044;28;20034;-64
2023/07/22 09:09:32;;;;;;;9.40;4.57;;;;;;;23.47;47.97;101293.88;4994754;28;20092;-65
2023/07/22 09:11:58;;;;;;;8.35;3.90;;;;;;;23.49;47.59;101289.25;4995310;28;20014;-65
2023/07/22 09:14:24;;;;;;;7.03;3.88;;;;;;;23.51;47.74;101292.56;4994623;28;20042;-69
2023/07/22 09:16:49;;;;;;;6.97;3.63;;;;;;;23.51;47.48;101298.75;4994220;28;20169;-66
2023/07/22 09:19:15;;;;;;;6.28;3.83;;;;;;;23.54;47.91;101281.63;4993975;28;20487;-66
2023/07/22 09:21:40;;;;;;;7.90;4.38;;;;;;;23.54;47.73;101289.63;4994981;28;20061;-66
2023/07/22 09:24:25;;;;;;;8.40;3.72;;;;;;;23.52;47.48;101280.97;4995136;28;20081;-66
2023/07/22 09:26:51;;;;;;;8.00;3.55;;;;;;;23.57;47.61;101269.88;4993533;28;20050;-65
2023/07/22 09:29:17;;;;;;;6.38;3.92;;;;;;;23.56;47.31;101287.66;4993435;28;20375;-65
2023/07/22 09:31:52;;;;;;;6.15;3.67;;;;;;;23.54;47.29;101289.63;4994026;28;20096;-65
2023/07/22 09:34:17;;;;;;;5.75;3.60;;;;;;;23.58;47.04;101290.19;4993373;28;20022;-66
2023/07/22 09:36:53;;;;;;;6.55;4.25;;;;;;;23.58;47.26;101282.19;4994662;28;20521;-65
2023/07/22 09:39:19;;;;;;;7.40;3.78;;;;;;;23.59;47.34;101284.72;4994279;28;20868;-66
2023/07/22 09:41:45;;;;;;;11.57;3.50;;;;;;;23.59;47.45;101289.16;4994535;28;20121;-67
2023/07/22 09:44:11;;;;;;;6.50;3.47;;;;;;;23.59;47.07;101273.22;4994058;28;20038;-65
2023/07/22 09:46:36;;;;;;;6.00;3.40;;;;;;;23.58;47.07;101282.19;4996605;28;20430;-65
2023/07/22 09:49:07;;;;;;;5.90;3.65;;;;;;;23.57;47.05;101273.34;4997304;28;20096;-65
2023/07/22 09:51:38;;;;;;;8.38;3.63;;;;;;;23.55;47.28;101275.34;4996330;28;20022;-65
2023/07/22 09:54:04;;;;;;;5.45;3.22;;;;;;;23.55;47.36;101280.66;4996572;28;20037;-65
2023/07/22 09:56:30;;;;;;;6.43;3.30;;;;;;;23.54;47.10;101261.22;4997700;28;20469;-64
2023/07/22 09:58:58;;;;;;;7.18;3.45;;;;;;;23.54;47.08;101271.84;4996293;28;20056;-67
2023/07/22 10:01:25;;;;;;;5.93;3.67;;;;;;;23.56;47.10;101266.38;4994799;28;20482;-66
2023/07/22 10:03:56;;;;;;;6.05;2.95;;;;;;;23.54;47.28;101277.19;4998910;28;20108;-66
2023/07/22 10:06:26;;;;;;;11.98;3.78;;;;;;;23.55;46.84;101259.38;4998844;28;20038;-66
2023/07/22 10:08:52;;;;;;;7.22;3.22;;;;;;;23.55;47.26;101267.38;4998147;28;20034;-66
2023/07/22 10:11:18;;;;;;;5.85;3.40;;;;;;;23.57;47.14;101267.22;4998002;28;20027;-65
2023/07/22 10:13:43;;;;;;;7.05;3.33;;;;;;;23.55;46.86;101260.22;4989089;28;20370;-66
2023/07/22 10:16:09;;;;;;;6.13;3.15;;;;;;;23.58;47.02;101268.91;4998802;28;20030;-65
2023/07/22 10:18:37;;;;;;;5.78;3.28;;;;;;;23.56;46.77;101266.38;4998290;28;20038;-65
2023/07/22 10:21:03;;;;;;;6.80;3.03;;;;;;;23.54;46.92;101263.03;4999391;28;20065;-66
2023/07/22 10:23:31;;;;;;;6.68;2.85;;;;;;;23.53;47.08;101267.50;4997970;28;20111;-65
2023/07/22 10:25:57;;;;;;;5.05;2.40;;;;;;;23.53;47.02;101278.16;4998451;28;20612;-66
2023/07/22 10:28:23;;;;;;;5.93;2.50;;;;;;;23.53;46.98;101278.16;4998175;28;20033;-64
2023/07/22 10:30:49;;;;;;;7.25;3.13;;;;;;;23.52;47.10;101271.16;5029645;28;20111;-65
2023/07/22 10:33:16;;;;;;;8.40;2.90;;;;;;;23.52;47.52;101262.34;4996679;28;20578;-68
2023/07/22 10:36:00;;;;;;;5.70;3.10;;;;;;;23.51;47.82;101272.16;4996805;28;20036;-64
2023/07/22 10:38:25;;;;;;;5.93;2.83;;;;;;;23.46;48.14;101278.91;4998553;28;20486;-65
2023/07/22 10:40:53;;;;;;;5.80;2.70;;;;;;;23.38;48.23;101265.50;4997414;28;20041;-64
2023/07/22 10:43:55;;;;;;;5.70;2.70;;;;;;;23.39;48.58;101267.19;4998339;28;20036;-65
2023/07/22 10:46:43;;;;;;;5.47;3.13;;;;;;;23.40;48.06;101276.84;4996637;28;20049;-66
2023/07/22 10:49:12;;;;;;;6.22;2.80;;;;;;;23.40;47.93;101271.50;4997639;28;20034;-65
2023/07/22 10:51:37;;;;;;;5.45;2.88;;;;;;;23.39;48.53;101261.88;4998719;28;20038;-65
2023/07/22 10:54:11;;;;;;;4.75;2.70;;;;;;;23.34;48.36;101257.81;4998203;28;20513;-65
2023/07/22 10:56:36;;;;;;;4.80;2.67;;;;;;;23.37;48.43;101254.03;4998012;28;20026;-65
2023/07/22 10:59:03;;;;;;;5.40;2.80;;;;;;;23.40;48.29;101255.56;4995806;28;20363;-66
2023/07/22 11:01:28;;;;;;;5.10;2.72;;;;;;;23.41;48.40;101263.38;4996593;28;20117;-64
2023/07/22 11:04:32;;;;;;;4.20;2.30;;;;;;;23.41;48.30;101262.56;4994821;28;20188;-67
2023/07/22 11:07:04;;;;;;;7.18;2.70;;;;;;;23.41;47.77;101252.75;4984649;28;20295;-65
2023/07/22 11:09:30;;;;;;;4.55;2.75;;;;;;;23.45;48.26;101266.56;4994764;28;20037;-64
2023/07/22 11:12:17;;;;;;;6.20;2.65;;;;;;;23.43;47.82;101268.56;4997634;28;20030;-65
2023/07/22 11:14:50;;;;;;;5.25;2.38;;;;;;;23.43;48.00;101253.47;4997482;28;20026;-64
2023/07/22 11:17:17;;;;;;;5.30;2.63;;;;;;;23.46;48.18;101253.13;4998549;28;20034;-64
2023/07/22 11:19:43;;;;;;;4.40;2.20;;;;;;;23.47;47.72;101254.81;4998047;28;20053;-63
2023/07/22 11:22:08;;;;;;;4.43;2.42;;;;;;;23.46;48.25;101239.00;4998265;28;20062;-64